Time;durP1;ratioP1;P1;durP2;ratioP2;P2;SDS_P1;SDS_P2;PMS_P1;PMS_P2;Temp;Humidity;BMP_temperature;BMP_pressure;BME280_temperature;BME280_humidity;BME280_pressure;Samples;Min_cycle;Max_cycle;Signal;HPM_P1;HPM_P2
2024/02/25 00:00:22;;;;;;;0.77;0.60;;;2.60;99.90;;;;;;4958409;28;20475;-80
2024/02/25 00:02:49;;;;;;;0.70;0.70;;;2.60;99.90;;;;;;4958399;29;20482;-80
2024/02/25 00:05:16;;;;;;;1.03;0.90;;;2.60;99.90;;;;;;4958581;29;20450;-80
2024/02/25 00:07:45;;;;;;;1.30;0.43;;;2.70;99.90;;;;;;4958465;29;20537;-80
2024/02/25 00:10:11;;;;;;;0.60;0.50;;;2.70;99.90;;;;;;4958285;28;20474;-80
2024/02/25 00:12:38;;;;;;;0.70;0.40;;;2.70;99.90;;;;;;4959499;29;20442;-80
2024/02/25 00:15:06;;;;;;;1.23;0.90;;;2.70;99.90;;;;;;4958591;28;20442;-80
2024/02/25 00:17:32;;;;;;;1.70;0.53;;;2.80;99.90;;;;;;4966960;28;20466;-79
2024/02/25 00:19:59;;;;;;;0.80;0.50;;;2.70;99.90;;;;;;4971354;28;20466;-80
2024/02/25 00:22:28;;;;;;;0.50;0.50;;;2.70;99.90;;;;;;4971739;29;20481;-79
2024/02/25 00:24:56;;;;;;;0.83;0.63;;;2.70;99.90;;;;;;4971880;29;20450;-80
2024/02/25 00:27:22;;;;;;;0.40;0.40;;;2.60;99.90;;;;;;4973035;28;20454;-79
2024/02/25 00:29:49;;;;;;;0.63;0.60;;;2.60;99.90;;;;;;4971734;29;20466;-79
2024/02/25 00:32:16;;;;;;;3.23;0.73;;;2.50;99.90;;;;;;4972120;29;20442;-79
2024/02/25 00:34:42;;;;;;;0.67;0.67;;;2.40;99.90;;;;;;4967517;29;20458;-80
2024/02/25 00:37:09;;;;;;;1.63;0.60;;;2.40;99.90;;;;;;4962746;28;20450;-80
2024/02/25 00:39:36;;;;;;;0.60;0.53;;;2.40;99.90;;;;;;4960381;28;20486;-80
2024/02/25 00:42:04;;;;;;;1.20;0.67;;;2.30;99.90;;;;;;4959567;29;20485;-80
2024/02/25 00:44:34;;;;;;;2.60;0.70;;;2.30;99.90;;;;;;4959455;28;20458;-80
2024/02/25 00:47:01;;;;;;;0.70;0.70;;;2.30;99.90;;;;;;4959276;29;20832;-80
2024/02/25 00:49:27;;;;;;;2.70;0.50;;;2.30;99.90;;;;;;4959179;28;20560;-80
2024/02/25 00:51:54;;;;;;;0.30;0.30;;;2.40;99.90;;;;;;4958664;28;20447;-80
2024/02/25 00:54:21;;;;;;;0.90;0.60;;;2.40;99.90;;;;;;4958915;28;20446;-80
2024/02/25 00:56:49;;;;;;;0.40;0.40;;;2.40;99.90;;;;;;4958823;28;20446;-80
2024/02/25 00:59:17;;;;;;;0.90;0.70;;;2.40;99.90;;;;;;4958602;28;20474;-80
2024/02/25 01:01:45;;;;;;;1.10;0.60;;;2.40;99.90;;;;;;4958559;29;20478;-80
2024/02/25 01:04:12;;;;;;;0.30;0.30;;;2.40;99.90;;;;;;4958848;29;20533;-80
2024/02/25 01:06:38;;;;;;;0.40;0.40;;;2.50;99.90;;;;;;4960998;29;20846;-80
2024/02/25 01:09:07;;;;;;;2.70;0.40;;;2.50;99.90;;;;;;4958053;29;21078;-80
2024/02/25 01:11:36;;;;;;;0.37;0.37;;;2.60;99.90;;;;;;4958344;28;20450;-80
2024/02/25 01:14:02;;;;;;;0.40;0.40;;;2.60;99.90;;;;;;4958525;29;20450;-80
2024/02/25 01:16:30;;;;;;;0.50;0.50;;;2.70;99.90;;;;;;4958299;29;20458;-80
2024/02/25 01:18:57;;;;;;;0.50;0.40;;;2.70;99.90;;;;;;4958231;29;20983;-80
2024/02/25 01:21:24;;;;;;;1.20;0.50;;;2.70;99.90;;;;;;4959578;28;20474;-80
2024/02/25 01:23:51;;;;;;;2.00;0.90;;;2.70;99.90;;;;;;4958571;29;20784;-80
2024/02/25 01:26:17;;;;;;;1.17;0.50;;;2.70;99.90;;;;;;4958663;29;20454;-80
2024/02/25 01:28:46;;;;;;;0.60;0.60;;;2.60;99.90;;;;;;4957294;28;20466;-80
2024/02/25 01:31:13;;;;;;;0.40;0.40;;;2.60;99.90;;;;;;4957519;29;20458;-80
2024/02/25 01:33:41;;;;;;;0.40;0.40;;;2.60;99.90;;;;;;4957575;28;20450;-80
2024/02/25 01:36:08;;;;;;;0.57;0.40;;;2.60;99.90;;;;;;4957679;28;20459;-80
2024/02/25 01:38:34;;;;;;;0.50;0.50;;;2.50;99.90;;;;;;4957680;28;20461;-80
2024/02/25 01:41:01;;;;;;;0.40;0.40;;;2.50;99.90;;;;;;4957859;29;21018;-80
2024/02/25 01:43:28;;;;;;;0.33;0.30;;;2.40;99.90;;;;;;4957991;29;20489;-80
2024/02/25 01:45:55;;;;;;;0.80;0.50;;;2.40;99.90;;;;;;4957646;29;20457;-80
2024/02/25 01:48:22;;;;;;;1.20;1.20;;;2.50;99.90;;;;;;4957553;28;20453;-80
2024/02/25 01:50:51;;;;;;;0.70;0.40;;;2.50;99.90;;;;;;4957377;29;20549;-80
2024/02/25 01:53:18;;;;;;;0.50;0.50;;;2.40;99.90;;;;;;4957581;28;20820;-80
2024/02/25 01:55:50;;;;;;;0.83;0.83;;;2.40;99.90;;;;;;4957693;29;20447;-80
2024/02/25 01:58:17;;;;;;;0.80;0.50;;;2.40;99.90;;;;;;4957645;29;20856;-80
2024/02/25 02:00:45;;;;;;;0.57;0.57;;;2.40;99.90;;;;;;4958140;28;20979;-80
2024/02/25 02:03:12;;;;;;;0.50;0.50;;;2.40;99.90;;;;;;4961351;29;20484;-80
2024/02/25 02:05:40;;;;;;;0.50;0.43;;;2.40;99.90;;;;;;4961180;28;20450;-80
2024/02/25 02:08:08;;;;;;;0.60;0.60;;;2.40;99.90;;;;;;4960947;28;20454;-80
2024/02/25 02:10:35;;;;;;;0.40;0.40;;;2.40;99.90;;;;;;4961097;29;20470;-80
2024/02/25 02:13:04;;;;;;;1.57;1.23;;;2.40;99.90;;;;;;4960947;28;20442;-80
2024/02/25 02:15:30;;;;;;;0.70;0.60;;;2.40;99.90;;;;;;4960885;28;20462;-80
2024/02/25 02:17:57;;;;;;;0.70;0.70;;;2.40;99.90;;;;;;4961254;28;20446;-80
2024/02/25 02:20:24;;;;;;;0.80;0.80;;;2.40;99.90;;;;;;4960785;28;20480;-80
2024/02/25 02:22:52;;;;;;;1.47;0.60;;;2.40;99.90;;;;;;4960824;29;20482;-80
2024/02/25 02:25:18;;;;;;;2.20;0.60;;;2.40;99.90;;;;;;4960458;29;20454;-80
2024/02/25 02:27:45;;;;;;;1.07;0.93;;;2.40;99.90;;;;;;4960747;28;20958;-80
2024/02/25 02:30:13;;;;;;;0.60;0.50;;;2.40;99.90;;;;;;4960427;29;20223;-80
2024/02/25 02:32:40;;;;;;;2.43;0.60;;;2.40;99.90;;;;;;4960449;28;20935;-80
2024/02/25 02:35:08;;;;;;;0.50;0.50;;;2.50;99.90;;;;;;4960276;28;20450;-80
2024/02/25 02:37:35;;;;;;;0.40;0.40;;;2.50;99.90;;;;;;4960689;28;20450;-80
2024/02/25 02:40:04;;;;;;;1.57;0.80;;;2.50;99.90;;;;;;4960042;28;20492;-80
2024/02/25 02:42:32;;;;;;;0.50;0.50;;;2.50;99.90;;;;;;4960242;28;20521;-80
2024/02/25 02:45:00;;;;;;;0.87;0.47;;;2.40;99.90;;;;;;4960575;29;20473;-80
2024/02/25 02:47:27;;;;;;;0.40;0.40;;;2.50;99.90;;;;;;4959850;29;20792;-80
2024/02/25 02:49:54;;;;;;;0.83;0.40;;;2.50;99.90;;;;;;4960137;28;20462;-80
2024/02/25 02:52:21;;;;;;;6.10;0.70;;;2.50;99.90;;;;;;4960061;29;20816;-80
2024/02/25 02:54:47;;;;;;;0.50;0.50;;;2.50;99.90;;;;;;4959906;28;20453;-80
2024/02/25 02:57:15;;;;;;;0.53;0.53;;;2.50;99.90;;;;;;4960024;29;20449;-80
2024/02/25 02:59:42;;;;;;;0.53;0.53;;;2.40;99.90;;;;;;4959383;29;21014;-80
2024/02/25 03:02:09;;;;;;;0.60;0.60;;;2.40;99.90;;;;;;4959668;28;20489;-80
2024/02/25 03:04:38;;;;;;;0.80;0.80;;;2.30;99.90;;;;;;4959876;28;20457;-80
2024/02/25 03:07:05;;;;;;;0.67;0.50;;;2.30;99.90;;;;;;4959268;28;20450;-80
2024/02/25 03:09:31;;;;;;;1.13;0.67;;;2.30;99.90;;;;;;4959450;29;21002;-80
2024/02/25 03:11:58;;;;;;;0.37;0.37;;;2.30;99.90;;;;;;4958747;28;20442;-80
2024/02/25 03:14:26;;;;;;;1.47;1.17;;;2.40;99.90;;;;;;4959695;29;20453;-80
2024/02/25 03:16:53;;;;;;;0.40;0.30;;;2.30;99.90;;;;;;4959834;29;20446;-80
2024/02/25 03:19:20;;;;;;;0.73;0.33;;;2.30;99.90;;;;;;4959260;29;20472;-80
2024/02/25 03:21:47;;;;;;;0.50;0.50;;;2.40;99.90;;;;;;4959664;29;20450;-80
2024/02/25 03:24:13;;;;;;;0.50;0.50;;;2.40;99.90;;;;;;4963685;29;20490;-80
2024/02/25 03:26:41;;;;;;;0.80;0.40;;;2.40;99.90;;;;;;4960753;28;20450;-80
2024/02/25 03:29:07;;;;;;;0.50;0.50;;;2.50;99.90;;;;;;4960080;28;20466;-80
2024/02/25 03:31:36;;;;;;;2.20;0.60;;;2.40;99.90;;;;;;4960211;29;20446;-80
2024/02/25 03:34:03;;;;;;;0.40;0.40;;;2.40;99.90;;;;;;4959845;28;20435;-80
2024/02/25 03:36:30;;;;;;;0.40;0.30;;;2.40;99.90;;;;;;4960140;28;20457;-80
2024/02/25 03:38:57;;;;;;;0.77;0.57;;;2.50;99.90;;;;;;4959654;28;20489;-80
2024/02/25 03:41:23;;;;;;;0.40;0.40;;;2.50;99.90;;;;;;4960254;29;20442;-80
2024/02/25 03:43:50;;;;;;;0.43;0.40;;;2.40;99.90;;;;;;4959622;29;20516;-80
2024/02/25 03:46:17;;;;;;;0.30;0.30;;;2.40;99.90;;;;;;4959940;28;20454;-80
2024/02/25 03:48:45;;;;;;;0.40;0.40;;;2.40;99.90;;;;;;4959427;29;20470;-80
2024/02/25 03:51:12;;;;;;;1.47;1.03;;;2.40;99.90;;;;;;4959481;28;20458;-80
2024/02/25 03:53:38;;;;;;;1.17;0.60;;;2.40;99.90;;;;;;4959394;28;20476;-80
2024/02/25 03:56:07;;;;;;;0.40;0.30;;;2.40;99.90;;;;;;4958725;28;20527;-80
2024/02/25 03:58:34;;;;;;;0.30;0.30;;;2.40;99.90;;;;;;4958750;29;20454;-80
2024/02/25 04:01:00;;;;;;;0.40;0.30;;;2.40;99.90;;;;;;4959046;29;20450;-80
2024/02/25 04:03:27;;;;;;;0.40;0.40;;;2.40;99.90;;;;;;4958824;28;20485;-80
2024/02/25 04:05:55;;;;;;;0.40;0.40;;;2.40;99.90;;;;;;4961851;29;20457;-80
2024/02/25 04:08:23;;;;;;;0.70;0.43;;;2.40;99.90;;;;;;4967591;28;20819;-80
2024/02/25 04:10:49;;;;;;;1.23;0.60;;;2.40;99.90;;;;;;4969992;29;20545;-80
2024/02/25 04:13:16;;;;;;;0.50;0.50;;;2.40;99.90;;;;;;4964378;29;20913;-80
2024/02/25 04:15:44;;;;;;;1.10;0.50;;;2.30;99.90;;;;;;4961010;28;20442;-80
2024/02/25 04:18:11;;;;;;;0.30;0.30;;;2.30;99.90;;;;;;4960056;29;20457;-80
2024/02/25 04:20:37;;;;;;;0.40;0.40;;;2.40;99.90;;;;;;4959345;29;20470;-80
2024/02/25 04:23:06;;;;;;;0.47;0.47;;;2.40;99.90;;;;;;4958633;28;20490;-80
2024/02/25 04:25:32;;;;;;;0.60;0.60;;;2.50;99.90;;;;;;4958369;28;20441;-80
2024/02/25 04:27:59;;;;;;;0.60;0.60;;;2.40;99.90;;;;;;4958386;28;20450;-80
2024/02/25 04:30:28;;;;;;;0.90;0.50;;;2.50;99.90;;;;;;4958353;29;20470;-80
2024/02/25 04:32:55;;;;;;;0.80;0.67;;;2.50;99.90;;;;;;4957750;28;20943;-80
2024/02/25 04:35:23;;;;;;;0.40;0.30;;;2.50;99.90;;;;;;4958438;29;20450;-80
2024/02/25 04:37:50;;;;;;;0.63;0.60;;;2.40;99.90;;;;;;4958210;29;20460;-80
2024/02/25 04:40:18;;;;;;;0.60;0.60;;;2.40;99.90;;;;;;4957858;28;20497;-80
2024/02/25 04:42:45;;;;;;;0.70;0.40;;;2.40;99.90;;;;;;4957806;29;20501;-80
2024/02/25 04:45:12;;;;;;;0.50;0.50;;;2.40;99.90;;;;;;4957737;28;20450;-80
2024/02/25 04:47:38;;;;;;;0.40;0.30;;;2.30;99.90;;;;;;4957710;29;20430;-80
2024/02/25 04:50:06;;;;;;;0.30;0.30;;;2.30;99.90;;;;;;4957093;29;20454;-80
2024/02/25 04:52:33;;;;;;;0.37;0.37;;;2.20;99.90;;;;;;4957581;28;20527;-80
2024/02/25 04:55:00;;;;;;;0.47;0.47;;;2.20;99.90;;;;;;4957388;28;20458;-80
2024/02/25 04:57:28;;;;;;;0.50;0.50;;;2.20;99.90;;;;;;4957253;29;20447;-80
2024/02/25 04:59:55;;;;;;;2.37;0.50;;;2.10;99.90;;;;;;4957086;28;20916;-80
2024/02/25 05:02:21;;;;;;;0.57;0.47;;;2.10;99.90;;;;;;4957614;28;20438;-80
2024/02/25 05:04:48;;;;;;;0.87;0.40;;;2.10;99.90;;;;;;4957638;29;20497;-80
2024/02/25 05:07:15;;;;;;;2.47;0.50;;;2.10;99.90;;;;;;4957536;29;20450;-80
2024/02/25 05:09:43;;;;;;;0.40;0.40;;;2.10;99.90;;;;;;4957201;29;20480;-80
2024/02/25 05:12:11;;;;;;;0.40;0.40;;;2.10;99.90;;;;;;4957179;29;20465;-80
2024/02/25 05:14:39;;;;;;;1.53;0.70;;;2.10;99.90;;;;;;4957162;28;20951;-80
2024/02/25 05:17:06;;;;;;;0.50;0.50;;;2.10;99.90;;;;;;4956914;29;20450;-80
2024/02/25 05:19:32;;;;;;;0.40;0.40;;;2.10;99.90;;;;;;4956867;28;20466;-80
2024/02/25 05:21:59;;;;;;;1.80;0.60;;;2.10;99.90;;;;;;4957123;29;20552;-80
2024/02/25 05:24:26;;;;;;;1.57;1.47;;;2.20;99.90;;;;;;4956767;29;20490;-80
2024/02/25 05:26:53;;;;;;;0.40;0.40;;;2.10;99.90;;;;;;4956872;29;20461;-80
2024/02/25 05:29:19;;;;;;;0.40;0.40;;;2.10;99.90;;;;;;4956812;29;20820;-80
2024/02/25 05:31:47;;;;;;;0.33;0.33;;;2.10;99.90;;;;;;4956671;29;20450;-80
2024/02/25 05:34:15;;;;;;;0.30;0.30;;;2.00;99.90;;;;;;4956546;28;20447;-80
2024/02/25 05:36:42;;;;;;;0.40;0.40;;;2.00;99.90;;;;;;4955699;29;20450;-80
2024/02/25 05:39:11;;;;;;;0.40;0.40;;;1.90;99.90;;;;;;4959806;28;20490;-80
2024/02/25 05:41:38;;;;;;;0.37;0.37;;;1.90;99.90;;;;;;4958893;29;20987;-80
2024/02/25 05:44:05;;;;;;;0.50;0.50;;;1.80;99.90;;;;;;4959102;28;20490;-80
2024/02/25 05:46:32;;;;;;;0.37;0.37;;;1.80;99.90;;;;;;4958988;28;20518;-80
2024/02/25 05:49:00;;;;;;;0.70;0.70;;;1.70;99.90;;;;;;4959285;29;20548;-80
2024/02/25 05:51:27;;;;;;;0.73;0.73;;;1.70;99.90;;;;;;4959049;29;20439;-80
2024/02/25 05:53:53;;;;;;;0.87;0.53;;;1.60;99.90;;;;;;4958407;29;20450;-80
2024/02/25 05:56:20;;;;;;;0.50;0.40;;;1.60;99.90;;;;;;4958534;29;20541;-80
2024/02/25 05:58:47;;;;;;;0.30;0.30;;;1.60;99.90;;;;;;4958853;28;20466;-80
2024/02/25 06:01:14;;;;;;;6.33;0.77;;;1.50;99.90;;;;;;4959002;29;20446;-80
2024/02/25 06:03:41;;;;;;;0.60;0.60;;;1.50;99.90;;;;;;4958394;29;20541;-80
2024/02/25 06:06:10;;;;;;;0.73;0.50;;;1.40;99.90;;;;;;4958268;28;20460;-80
2024/02/25 06:08:37;;;;;;;0.80;0.80;;;1.40;99.90;;;;;;4958334;29;20453;-80
2024/02/25 06:11:04;;;;;;;2.23;0.40;;;1.40;99.90;;;;;;4958256;29;20443;-80
2024/02/25 06:13:31;;;;;;;3.53;0.50;;;1.40;99.90;;;;;;4958101;29;20455;-80
2024/02/25 06:15:58;;;;;;;0.60;0.60;;;1.40;99.90;;;;;;4957819;28;20450;-80
2024/02/25 06:18:24;;;;;;;0.50;0.50;;;1.40;99.90;;;;;;4958844;29;20447;-80
2024/02/25 06:20:51;;;;;;;0.30;0.30;;;1.40;99.90;;;;;;4958407;29;20438;-80
2024/02/25 06:23:19;;;;;;;1.87;0.80;;;1.40;99.90;;;;;;4958539;29;20513;-80
2024/02/25 06:25:46;;;;;;;0.53;0.53;;;1.40;99.90;;;;;;4958037;28;20461;-80
2024/02/25 06:28:13;;;;;;;0.50;0.50;;;1.50;99.90;;;;;;4957306;29;20549;-80
2024/02/25 06:30:39;;;;;;;0.40;0.30;;;1.50;99.90;;;;;;4956980;29;20470;-80
2024/02/25 06:33:06;;;;;;;0.30;0.30;;;1.60;99.90;;;;;;4956410;29;20446;-80
2024/02/25 06:35:33;;;;;;;0.60;0.50;;;1.60;99.90;;;;;;4956594;29;20449;-80
2024/02/25 06:38:01;;;;;;;0.53;0.53;;;1.70;99.90;;;;;;4955920;29;20798;-80
2024/02/25 06:40:29;;;;;;;1.20;0.70;;;1.70;99.90;;;;;;4955556;28;20855;-80
2024/02/25 06:42:55;;;;;;;2.10;1.00;;;1.70;99.90;;;;;;4956154;29;20454;-80
2024/02/25 06:45:22;;;;;;;1.10;0.93;;;1.80;99.90;;;;;;4956889;29;20492;-80
2024/02/25 06:47:49;;;;;;;0.70;0.50;;;1.80;99.90;;;;;;4958930;28;20454;-80
2024/02/25 06:50:17;;;;;;;0.30;0.30;;;1.80;99.90;;;;;;4959391;28;20469;-80
2024/02/25 06:52:43;;;;;;;0.40;0.40;;;1.80;99.90;;;;;;4960349;28;20551;-80
2024/02/25 06:55:10;;;;;;;0.40;0.40;;;1.80;99.90;;;;;;4961239;29;20449;-80
2024/02/25 06:57:38;;;;;;;0.40;0.40;;;1.90;99.90;;;;;;4961466;28;20457;-80
2024/02/25 07:00:07;;;;;;;0.50;0.50;;;1.90;99.90;;;;;;4961790;29;20994;-80
2024/02/25 07:02:34;;;;;;;0.40;0.40;;;2.10;99.90;;;;;;4960777;28;20454;-80
2024/02/25 07:05:01;;;;;;;0.80;0.80;;;2.20;99.90;;;;;;4959808;28;20485;-80
2024/02/25 07:07:28;;;;;;;0.40;0.40;;;2.30;99.90;;;;;;4959553;28;20454;-80
2024/02/25 07:09:57;;;;;;;0.60;0.60;;;2.40;99.90;;;;;;4959563;29;20458;-80
2024/02/25 07:12:24;;;;;;;0.60;0.57;;;2.60;99.90;;;;;;4959866;29;20454;-80
2024/02/25 07:14:52;;;;;;;0.37;0.37;;;2.80;99.90;;;;;;4959278;29;20446;-80
2024/02/25 07:17:19;;;;;;;0.50;0.40;;;3.00;99.90;;;;;;4961832;29;20462;-80
2024/02/25 07:19:46;;;;;;;0.97;0.60;;;3.20;99.90;;;;;;4959535;28;20462;-80
2024/02/25 07:22:13;;;;;;;0.60;0.50;;;3.40;99.90;;;;;;4959023;28;20445;-80
2024/02/25 07:24:40;;;;;;;0.40;0.30;;;3.60;99.90;;;;;;4959250;28;20486;-80
2024/02/25 07:27:08;;;;;;;0.80;0.80;;;3.70;99.90;;;;;;4958505;28;20951;-80
2024/02/25 07:29:35;;;;;;;0.83;0.70;;;3.90;99.90;;;;;;4958730;29;20470;-80
2024/02/25 07:32:03;;;;;;;1.07;0.77;;;4.10;99.90;;;;;;4958639;28;20446;-80
2024/02/25 07:34:29;;;;;;;0.37;0.33;;;4.20;99.90;;;;;;4958862;29;20446;-80
2024/02/25 07:36:56;;;;;;;0.30;0.30;;;4.20;99.90;;;;;;4958657;29;20839;-80
2024/02/25 07:39:23;;;;;;;1.90;0.60;;;4.40;99.90;;;;;;4958288;28;20474;-80
2024/02/25 07:41:50;;;;;;;1.00;0.90;;;4.40;99.90;;;;;;4959211;28;20809;-80
2024/02/25 07:44:16;;;;;;;0.40;0.40;;;4.50;99.90;;;;;;4959247;29;20474;-80
2024/02/25 07:46:43;;;;;;;0.40;0.40;;;4.50;99.90;;;;;;4960870;29;20454;-80
2024/02/25 07:49:11;;;;;;;0.73;0.70;;;4.50;99.90;;;;;;4961677;29;20553;-80
2024/02/25 07:51:38;;;;;;;0.57;0.57;;;4.50;99.90;;;;;;4967790;28;20453;-79
2024/02/25 07:54:05;;;;;;;0.40;0.40;;;4.60;99.90;;;;;;4959740;29;20434;-80
2024/02/25 07:56:31;;;;;;;0.97;0.60;;;4.60;99.90;;;;;;4958493;28;20458;-80
2024/02/25 07:58:58;;;;;;;0.40;0.40;;;4.60;99.90;;;;;;4957325;28;20462;-80
2024/02/25 08:01:25;;;;;;;0.53;0.53;;;4.70;99.90;;;;;;4957426;29;20939;-80
2024/02/25 08:03:52;;;;;;;0.57;0.50;;;4.80;99.90;;;;;;4958107;28;20843;-80
2024/02/25 08:06:27;;;;;;;0.60;0.60;;;4.90;99.90;;;;;;4958396;28;20879;-80
2024/02/25 08:08:54;;;;;;;0.47;0.47;;;5.00;99.90;;;;;;4958226;29;20579;-80
2024/02/25 08:11:20;;;;;;;0.40;0.30;;;5.10;99.90;;;;;;4957703;29;20446;-80
2024/02/25 08:13:47;;;;;;;1.77;0.60;;;5.20;99.90;;;;;;4957872;29;20438;-80
2024/02/25 08:16:14;;;;;;;0.53;0.53;;;5.20;99.90;;;;;;4957982;29;20837;-80
2024/02/25 08:18:45;;;;;;;0.73;0.73;;;5.20;99.90;;;;;;4958376;29;20454;-80
2024/02/25 08:21:12;;;;;;;0.40;0.40;;;5.20;99.90;;;;;;4958389;29;20435;-80
2024/02/25 08:23:40;;;;;;;0.40;0.40;;;5.20;99.90;;;;;;4957263;29;20450;-80
2024/02/25 08:26:07;;;;;;;0.40;0.40;;;5.30;99.90;;;;;;4957755;29;20505;-80
2024/02/25 08:28:34;;;;;;;0.40;0.40;;;5.40;99.90;;;;;;4957936;29;20951;-81
2024/02/25 08:31:01;;;;;;;0.40;0.40;;;5.40;99.90;;;;;;4958293;29;20453;-80
2024/02/25 08:33:28;;;;;;;1.10;0.47;;;5.40;99.90;;;;;;4958262;28;20450;-80
2024/02/25 08:35:54;;;;;;;0.67;0.50;;;5.50;99.90;;;;;;4958383;29;20936;-80
2024/02/25 08:38:21;;;;;;;1.40;0.77;;;5.70;99.90;;;;;;4958529;29;20465;-80
2024/02/25 08:40:49;;;;;;;1.23;0.43;;;5.70;99.90;;;;;;4958284;29;20575;-81
2024/02/25 08:43:16;;;;;;;1.20;1.10;;;5.80;99.90;;;;;;4958143;28;20446;-80
2024/02/25 08:45:43;;;;;;;0.60;0.60;;;5.80;99.90;;;;;;4958506;28;20482;-80
2024/02/25 08:48:10;;;;;;;0.60;0.60;;;5.90;99.90;;;;;;4958629;29;20461;-80
2024/02/25 08:50:35;;;;;;;1.70;0.63;;;5.90;99.90;;;;;;4958249;28;21023;-80
2024/02/25 08:53:02;;;;;;;1.63;0.70;;;6.00;99.90;;;;;;4958593;29;20465;-80
2024/02/25 08:55:29;;;;;;;0.87;0.70;;;6.20;99.90;;;;;;4957480;29;20206;-80
2024/02/25 08:57:57;;;;;;;1.33;0.50;;;6.30;99.90;;;;;;4957056;29;20443;-80
2024/02/25 09:00:24;;;;;;;1.00;1.00;;;6.30;99.90;;;;;;4956910;29;20537;-80
2024/02/25 09:02:52;;;;;;;0.60;0.60;;;6.20;99.90;;;;;;4956921;29;20465;-80
2024/02/25 09:05:19;;;;;;;1.10;0.73;;;6.20;99.90;;;;;;4957297;29;20490;-80
2024/02/25 09:07:45;;;;;;;0.80;0.80;;;6.50;99.90;;;;;;4957001;28;20948;-80
2024/02/25 09:10:18;;;;;;;1.67;0.70;;;6.70;99.90;;;;;;4957224;28;20471;-80
2024/02/25 09:12:47;;;;;;;0.60;0.40;;;7.10;99.90;;;;;;4957312;29;20434;-80
2024/02/25 09:15:16;;;;;;;0.50;0.50;;;7.50;99.90;;;;;;4957170;29;20513;-80
2024/02/25 09:17:44;;;;;;;0.57;0.57;;;8.30;99.90;;;;;;4957800;29;20983;-80
2024/02/25 09:20:11;;;;;;;0.73;0.50;;;9.50;99.90;;;;;;4957613;29;20466;-80
2024/02/25 09:22:38;;;;;;;0.80;0.50;;;10.40;99.90;;;;;;4957856;28;20451;-81
2024/02/25 09:25:05;;;;;;;1.20;0.40;;;11.60;99.90;;;;;;4957517;28;20485;-81
2024/02/25 09:27:32;;;;;;;0.73;0.70;;;12.50;99.90;;;;;;4958090;28;20465;-81
2024/02/25 09:29:59;;;;;;;0.50;0.50;;;13.80;99.90;;;;;;4957955;29;20462;-81
2024/02/25 09:32:29;;;;;;;1.07;0.60;;;15.50;99.90;;;;;;4958548;29;20450;-81
2024/02/25 09:34:56;;;;;;;3.73;0.50;;;17.10;99.90;;;;;;4958143;29;20430;-81
2024/02/25 09:37:23;;;;;;;1.33;0.60;;;17.80;97.00;;;;;;4958106;29;20453;-81
2024/02/25 09:39:49;;;;;;;1.10;0.67;;;17.10;93.20;;;;;;4958096;28;20482;-81
2024/02/25 09:42:21;;;;;;;0.67;0.63;;;16.10;92.80;;;;;;4958162;29;20454;-81
2024/02/25 09:44:52;;;;;;;0.60;0.60;;;15.60;93.40;;;;;;4957411;29;20983;-81
2024/02/25 09:47:20;;;;;;;1.07;0.60;;;16.00;94.50;;;;;;4957943;29;20513;-81
2024/02/25 09:49:49;;;;;;;0.70;0.70;;;16.70;92.80;;;;;;4957481;29;20466;-81
2024/02/25 09:52:18;;;;;;;0.50;0.50;;;17.50;91.70;;;;;;4958064;29;20446;-81
2024/02/25 09:54:46;;;;;;;0.47;0.47;;;18.00;88.10;;;;;;4957396;29;20442;-81
2024/02/25 09:57:13;;;;;;;0.53;0.53;;;18.00;87.10;;;;;;4957783;29;20461;-80
2024/02/25 09:59:40;;;;;;;0.60;0.60;;;17.90;84.80;;;;;;4957584;28;20474;-81
2024/02/25 10:02:08;;;;;;;0.50;0.50;;;18.20;83.20;;;;;;4957866;28;20963;-81
2024/02/25 10:04:36;;;;;;;0.40;0.40;;;18.80;84.50;;;;;;4959677;28;20565;-80
2024/02/25 10:07:04;;;;;;;3.60;0.60;;;19.00;78.30;;;;;;4961686;29;20858;-80
2024/02/25 10:09:32;;;;;;;0.90;0.40;;;19.00;78.10;;;;;;4955637;29;20466;-80
2024/02/25 10:11:59;;;;;;;0.40;0.40;;;19.30;78.50;;;;;;4955878;29;20446;-81
2024/02/25 10:14:26;;;;;;;0.60;0.40;;;19.30;75.40;;;;;;4955869;29;20526;-80
2024/02/25 10:17:04;;;;;;;0.80;0.33;;;18.70;73.20;;;;;;4955779;28;20556;-80
2024/02/25 10:19:31;;;;;;;1.13;0.50;;;18.40;74.30;;;;;;4955817;29;20536;-81
2024/02/25 10:22:10;;;;;;;0.40;0.30;;;17.80;75.60;;;;;;4957184;28;20979;-80
2024/02/25 10:24:37;;;;;;;0.37;0.33;;;17.00;74.60;;;;;;4960008;29;20466;-81
2024/02/25 10:27:11;;;;;;;1.07;0.40;;;16.30;75.10;;;;;;4960634;28;20450;-81
2024/02/25 10:29:54;;;;;;;0.40;0.37;;;16.30;75.70;;;;;;4961269;28;20465;-81
2024/02/25 10:32:26;;;;;;;0.47;0.30;;;17.00;76.40;;;;;;4960783;29;20427;-81
2024/02/25 10:34:53;;;;;;;0.40;0.30;;;17.70;71.40;;;;;;4960133;29;20481;-81
2024/02/25 10:37:23;;;;;;;0.40;0.40;;;18.70;71.90;;;;;;4960552;29;20453;-81
2024/02/25 10:39:53;;;;;;;0.50;0.40;;;20.10;70.00;;;;;;4960235;28;20486;-81
2024/02/25 10:42:23;;;;;;;0.40;0.30;;;21.40;65.70;;;;;;4961301;29;20462;-82
2024/02/25 10:44:51;;;;;;;0.40;0.40;;;22.80;63.10;;;;;;4960792;29;20480;-81
2024/02/25 10:47:19;;;;;;;0.50;0.40;;;24.20;60.60;;;;;;4960723;29;20452;-81
2024/02/25 10:49:47;;;;;;;0.50;0.50;;;25.10;55.50;;;;;;4961079;28;20229;-81
2024/02/25 10:52:14;;;;;;;1.05;0.40;;;24.60;55.40;;;;;;4963325;29;20206;-81
2024/02/25 10:54:46;;;;;;;1.25;0.43;;;25.60;53.20;;;;;;4961435;28;20213;-81
2024/02/25 10:57:14;;;;;;;0.75;0.75;;;26.20;51.30;;;;;;4959591;29;20226;-82
2024/02/25 10:59:42;;;;;;;0.50;0.40;;;25.60;50.60;;;;;;4960230;29;20237;-80
2024/02/25 11:02:11;;;;;;;0.40;0.40;;;26.00;50.20;;;;;;4959628;29;20217;-81
2024/02/25 11:04:38;;;;;;;0.60;0.45;;;25.90;49.10;;;;;;4966432;28;20209;-80
2024/02/25 11:07:05;;;;;;;0.50;0.50;;;25.00;48.40;;;;;;4976002;29;20229;-80
2024/02/25 11:09:33;;;;;;;0.30;0.30;;;23.60;50.40;;;;;;4974137;29;20237;-80
2024/02/25 11:12:20;;;;;;;0.60;0.40;;;22.50;51.30;;;;;;4976043;29;20214;-80
2024/02/25 11:14:52;;;;;;;0.40;0.30;;;21.50;52.40;;;;;;4977387;29;20190;-80
2024/02/25 11:17:27;;;;;;;0.50;0.50;;;20.00;54.50;;;;;;4976542;29;20512;-80
2024/02/25 11:20:05;;;;;;;0.50;0.40;;;18.50;56.80;;;;;;4975384;29;20480;-80
2024/02/25 11:22:43;;;;;;;1.03;0.50;;;16.60;59.10;;;;;;4961149;28;20897;-81
2024/02/25 11:25:35;;;;;;;0.40;0.40;;;15.50;62.00;;;;;;4960365;29;20470;-81
2024/02/25 11:28:05;;;;;;;0.50;0.40;;;14.60;65.00;;;;;;4960222;29;20446;-81
2024/02/25 11:30:36;;;;;;;0.40;0.30;;;14.20;68.90;;;;;;4960889;28;20824;-80
2024/02/25 11:33:03;;;;;;;0.50;0.33;;;13.90;68.10;;;;;;4967720;28;20443;-80
2024/02/25 11:35:31;;;;;;;0.60;0.40;;;13.80;69.00;;;;;;4969128;28;20446;-80
2024/02/25 11:37:59;;;;;;;0.90;0.40;;;13.50;69.20;;;;;;4969307;29;20537;-78
2024/02/25 11:40:26;;;;;;;1.23;0.40;;;13.50;70.10;;;;;;4961284;28;20494;-78
2024/02/25 11:42:52;;;;;;;0.40;0.30;;;13.50;70.20;;;;;;4960457;29;20446;-78
2024/02/25 11:45:20;;;;;;;0.70;0.40;;;13.50;68.50;;;;;;4959886;29;20486;-80
2024/02/25 11:47:49;;;;;;;0.40;0.40;;;13.30;69.00;;;;;;4959479;28;20455;-81
2024/02/25 11:50:16;;;;;;;0.30;0.30;;;13.00;70.20;;;;;;4960128;29;20505;-80
2024/02/25 11:52:58;;;;;;;0.47;0.30;;;12.80;70.40;;;;;;4960042;29;20441;-80
2024/02/25 11:55:25;;;;;;;0.40;0.40;;;12.30;71.60;;;;;;4960439;29;20430;-80
2024/02/25 11:57:53;;;;;;;0.30;0.30;;;12.10;72.10;;;;;;4960380;29;20465;-80
2024/02/25 12:00:21;;;;;;;0.40;0.40;;;12.10;72.70;;;;;;4959023;28;20547;-81
2024/02/25 12:02:48;;;;;;;0.40;0.30;;;12.20;74.50;;;;;;4959124;29;20457;-80
2024/02/25 12:05:15;;;;;;;0.40;0.40;;;12.20;74.40;;;;;;4959163;28;20485;-80
2024/02/25 12:07:42;;;;;;;0.83;0.50;;;12.20;75.20;;;;;;4959029;28;20450;-80
2024/02/25 12:10:10;;;;;;;0.50;0.50;;;12.10;74.00;;;;;;4961648;29;20517;-80
2024/02/25 12:12:37;;;;;;;0.40;0.40;;;12.10;74.40;;;;;;4960466;29;20936;-80
2024/02/25 12:15:05;;;;;;;0.50;0.40;;;12.10;73.00;;;;;;4958482;29;20446;-80
2024/02/25 12:17:33;;;;;;;0.30;0.30;;;12.00;72.80;;;;;;4958325;29;20525;-80
2024/02/25 12:20:01;;;;;;;0.90;0.50;;;12.00;73.30;;;;;;4957781;29;20506;-80
2024/02/25 12:22:29;;;;;;;0.53;0.40;;;12.00;72.60;;;;;;4957886;28;20458;-80
2024/02/25 12:24:56;;;;;;;0.53;0.40;;;11.80;71.40;;;;;;4957589;29;20463;-80
2024/02/25 12:27:23;;;;;;;0.40;0.30;;;11.70;73.10;;;;;;4957805;28;20509;-81
2024/02/25 12:29:50;;;;;;;0.40;0.30;;;11.90;76.20;;;;;;4957881;29;20470;-80
2024/02/25 12:32:18;;;;;;;0.37;0.30;;;11.90;74.30;;;;;;4957906;29;20450;-80
2024/02/25 12:34:46;;;;;;;0.30;0.20;;;11.80;72.20;;;;;;4957828;28;20502;-80
2024/02/25 12:37:14;;;;;;;0.40;0.30;;;11.50;71.60;;;;;;4958039;29;20454;-80
2024/02/25 12:39:41;;;;;;;0.50;0.30;;;11.40;72.50;;;;;;4957857;28;20485;-80
2024/02/25 12:42:09;;;;;;;0.40;0.30;;;11.30;73.90;;;;;;4957773;29;20482;-80
2024/02/25 12:44:36;;;;;;;0.60;0.40;;;11.00;73.00;;;;;;4957476;28;20460;-80
2024/02/25 12:47:03;;;;;;;0.30;0.30;;;10.80;73.00;;;;;;4957582;29;20493;-81
2024/02/25 12:49:28;;;;;;;0.30;0.30;;;10.60;74.40;;;;;;4957327;29;20834;-80
2024/02/25 12:51:57;;;;;;;0.50;0.30;;;10.40;75.60;;;;;;4957547;29;20445;-79
2024/02/25 12:54:23;;;;;;;0.40;0.30;;;10.30;76.90;;;;;;4957951;28;20214;-80
2024/02/25 12:56:51;;;;;;;0.37;0.30;;;10.30;78.20;;;;;;4957551;28;20453;-80